createdAt,value
2023-03-18T00:00:20.117Z,67.81
2023-03-18T00:01:20.090Z,67.61
2023-03-18T00:02:20.143Z,67.41
2023-03-18T00:03:20.091Z,67.51
2023-03-18T00:04:20.054Z,66.87
2023-03-18T00:05:20.039Z,66.60
2023-03-18T00:06:20.030Z,67.54
2023-03-18T00:07:20.038Z,67.95
2023-03-18T00:08:20.004Z,68.05
2023-03-18T00:09:20.004Z,67.91
2023-03-18T00:10:19.991Z,68.01
2023-03-18T00:11:19.988Z,68.12
2023-03-18T00:12:19.964Z,68.01
2023-03-18T00:13:19.953Z,68.45
2023-03-18T00:14:19.943Z,68.12
2023-03-18T00:15:19.933Z,68.01
2023-03-18T00:16:20.020Z,67.48
2023-03-18T00:17:19.910Z,67.41
2023-03-18T00:18:19.896Z,67.17
2023-03-18T00:21:19.865Z,68.25
2023-03-18T00:22:19.855Z,68.01
2023-03-18T00:23:19.842Z,67.81
2023-03-18T00:24:19.832Z,67.58
2023-03-18T00:25:19.824Z,67.21
2023-03-18T00:26:19.807Z,67.07
2023-03-18T00:27:19.801Z,67.38
2023-03-18T00:28:19.788Z,67.21
2023-03-18T00:34:19.725Z,67.41
2023-03-18T00:35:19.713Z,67.21
2023-03-18T00:36:19.698Z,67.51
2023-03-18T00:37:19.690Z,67.51
2023-03-18T00:38:19.676Z,67.61
2023-03-18T00:39:19.671Z,67.48
2023-03-18T00:40:19.654Z,67.21
2023-03-18T00:41:19.644Z,67.91
2023-03-18T00:42:19.635Z,67.91
2023-03-18T00:44:19.610Z,68.12
2023-03-18T00:45:19.605Z,67.71
2023-03-18T00:46:19.663Z,67.61
2023-03-18T00:47:19.578Z,67.71
2023-03-18T00:48:19.589Z,67.71
2023-03-18T00:49:19.557Z,67.61
2023-03-18T00:50:19.545Z,67.61
2023-03-18T00:51:19.534Z,67.81
2023-03-18T00:53:19.513Z,67.81
2023-03-18T00:54:19.499Z,68.35
2023-03-18T00:55:19.491Z,68.86
2023-03-18T00:57:19.469Z,68.76
2023-03-18T00:58:19.462Z,68.56
2023-03-18T00:59:19.451Z,68.86
2023-03-18T01:00:19.434Z,69.09
2023-03-18T01:01:19.501Z,68.65
2023-03-18T01:02:19.482Z,68.56
2023-03-18T01:03:19.404Z,68.62
2023-03-18T01:04:19.419Z,67.91
2023-03-18T01:05:19.382Z,67.91
2023-03-18T01:06:19.370Z,67.61
2023-03-18T01:07:19.365Z,67.61
2023-03-18T01:08:19.354Z,67.17
2023-03-18T01:09:19.339Z,67.17
2023-03-18T01:10:19.326Z,66.97
2023-03-18T01:11:19.323Z,67.17
2023-03-18T01:12:19.316Z,67.07
2023-03-18T01:13:19.293Z,67.41
2023-03-18T01:14:19.281Z,67.71
2023-03-18T01:15:19.281Z,67.91
2023-03-18T01:16:19.350Z,67.81
2023-03-18T01:17:19.258Z,68.25
2023-03-18T01:18:19.241Z,68.35
2023-03-18T01:19:19.231Z,68.45
2023-03-18T01:20:19.240Z,68.76
2023-03-18T01:21:19.216Z,68.56
2023-03-18T01:22:19.196Z,68.25
2023-03-18T01:23:19.185Z,68.12
2023-03-18T01:24:19.175Z,67.38
2023-03-18T01:25:19.163Z,67.38
2023-03-18T01:26:19.155Z,67.17
2023-03-18T01:27:19.152Z,67.07
2023-03-18T01:28:19.136Z,67.51
2023-03-18T01:29:19.120Z,67.71
2023-03-18T01:30:19.112Z,67.71
2023-03-18T01:31:19.150Z,68.15
2023-03-18T01:32:19.086Z,68.48
2023-03-18T01:33:19.075Z,69.29
2023-03-18T01:34:19.083Z,69.20
2023-03-18T01:35:19.052Z,69.20
2023-03-18T01:36:19.067Z,69.73
2023-03-18T01:38:19.020Z,69.50
2023-03-18T01:39:19.008Z,69.20
2023-03-18T01:40:19.006Z,69.29
2023-03-18T01:41:18.987Z,69.40
2023-03-18T01:42:18.976Z,69.20
2023-03-18T01:43:18.959Z,69.73
2023-03-18T01:44:18.959Z,69.50
2023-03-18T01:45:18.940Z,69.33
2023-03-18T01:46:18.931Z,69.43
2023-03-18T01:47:18.917Z,70.04
2023-03-18T01:48:18.914Z,70.08
2023-03-18T01:49:18.895Z,70.17
2023-03-18T01:50:18.888Z,70.37
2023-03-18T01:51:18.876Z,70.14
2023-03-18T01:52:18.883Z,70.28
2023-03-18T01:53:18.850Z,70.04
2023-03-18T01:54:18.845Z,69.73
2023-03-18T01:55:18.829Z,69.84
2023-03-18T01:56:18.820Z,69.84
2023-03-18T01:57:18.804Z,69.94
2023-03-18T01:58:18.802Z,69.53
2023-03-18T01:59:18.785Z,69.73
2023-03-18T02:01:18.773Z,69.50
2023-03-18T02:02:18.754Z,69.60
2023-03-18T02:03:18.741Z,69.84
2023-03-18T02:04:18.733Z,69.84
2023-03-18T02:05:18.719Z,69.70
2023-03-18T02:07:18.698Z,69.81
2023-03-18T02:08:18.710Z,69.70
2023-03-18T02:09:18.677Z,69.81
2023-03-18T02:10:18.667Z,69.81
2023-03-18T02:11:18.657Z,70.11
2023-03-18T02:12:18.646Z,69.81
2023-03-18T02:13:18.637Z,69.81
2023-03-18T02:14:18.628Z,70.21
2023-03-18T02:15:18.613Z,69.81
2023-03-18T02:16:18.669Z,69.20
2023-03-18T02:17:18.590Z,69.09
2023-03-18T02:18:18.580Z,68.96
2023-03-18T02:19:18.568Z,68.76
2023-03-18T02:20:18.558Z,69.06
2023-03-18T02:21:18.664Z,68.65
2023-03-18T02:22:18.537Z,68.42
2023-03-18T02:23:18.532Z,67.91
2023-03-18T02:24:18.533Z,68.12
2023-03-18T02:25:18.514Z,68.32
2023-03-18T02:27:18.483Z,68.52
2023-03-18T02:33:18.420Z,68.73
2023-03-18T02:34:18.405Z,68.62
2023-03-18T02:37:18.371Z,68.01
2023-03-18T02:38:18.361Z,68.01
2023-03-18T02:39:18.355Z,68.32
2023-03-18T02:40:18.364Z,68.42
2023-03-18T02:41:18.325Z,68.42
2023-03-18T02:42:18.329Z,68.82
2023-03-18T02:43:18.311Z,68.62
2023-03-18T02:44:18.294Z,68.62
2023-03-18T02:45:18.288Z,68.76
2023-03-18T02:46:18.350Z,69.06
2023-03-18T02:47:18.268Z,69.26
2023-03-18T02:48:18.251Z,68.76
2023-03-18T02:49:18.241Z,69.06
2023-03-18T02:50:18.229Z,69.60
2023-03-18T02:51:18.224Z,69.81
2023-03-18T02:52:18.209Z,70.21
2023-03-18T02:53:18.196Z,69.77
2023-03-18T02:54:18.189Z,68.82
2023-03-18T02:55:18.178Z,69.26
2023-03-18T02:56:18.187Z,69.26
2023-03-18T02:57:18.154Z,68.96
2023-03-18T02:58:18.145Z,69.16
2023-03-18T02:59:18.136Z,68.52
2023-03-18T03:00:18.122Z,67.88
2023-03-18T03:01:18.128Z,68.22
2023-03-18T03:02:18.135Z,68.32
2023-03-18T03:04:18.082Z,68.62
2023-03-18T03:05:18.068Z,68.32
2023-03-18T03:06:18.081Z,68.65
2023-03-18T03:07:18.054Z,69.09
2023-03-18T03:08:18.040Z,69.50
2023-03-18T03:09:18.022Z,69.81
2023-03-18T03:11:18.000Z,70.14
2023-03-18T03:12:18.014Z,69.81
2023-03-18T03:13:17.979Z,69.57
2023-03-18T03:14:17.971Z,68.86
2023-03-18T03:15:17.958Z,68.76
2023-03-18T03:16:18.006Z,68.79
2023-03-18T03:17:17.937Z,69.20
2023-03-18T03:18:17.938Z,68.59
2023-03-18T03:19:17.950Z,67.88
2023-03-18T03:20:17.905Z,68.28
2023-03-18T03:21:17.896Z,68.18
2023-03-18T03:22:17.883Z,68.48
2023-03-18T03:23:17.871Z,69.53
2023-03-18T03:24:17.868Z,70.58
2023-03-18T03:27:17.832Z,70.48
2023-03-18T03:28:17.846Z,70.37
2023-03-18T03:29:17.805Z,70.58
2023-03-18T03:30:17.797Z,70.89
2023-03-18T03:31:17.905Z,71.19
2023-03-18T03:32:17.774Z,71.19
2023-03-18T03:33:17.763Z,71.50
2023-03-18T03:34:17.761Z,71.83
2023-03-18T03:35:17.738Z,71.70
2023-03-18T03:38:17.714Z,70.62
2023-03-18T03:39:17.696Z,70.21
2023-03-18T03:40:17.686Z,70.01
2023-03-18T03:41:17.673Z,69.90
2023-03-18T03:42:17.663Z,69.57
2023-03-18T03:43:17.650Z,69.26
2023-03-18T03:44:17.662Z,69.06
2023-03-18T03:45:17.636Z,69.26
2023-03-18T03:46:17.694Z,68.76
2023-03-18T03:47:17.609Z,69.06
2023-03-18T03:48:17.605Z,68.76
2023-03-18T03:50:17.576Z,70.01
2023-03-18T03:51:17.577Z,70.21
2023-03-18T03:52:17.554Z,70.11
2023-03-18T03:55:17.519Z,70.52
2023-03-18T03:56:17.509Z,70.41
2023-03-18T03:57:17.508Z,70.52
2023-03-18T03:58:17.487Z,70.82
2023-03-18T03:59:17.476Z,70.21
2023-03-18T04:00:17.483Z,69.09
2023-03-18T04:01:17.453Z,69.09
2023-03-18T04:02:17.475Z,70.68
2023-03-18T04:04:17.500Z,71.53
2023-03-18T04:05:17.417Z,72.14
2023-03-18T04:12:17.336Z,72.10
2023-03-18T04:13:17.332Z,72.41
2023-03-18T04:14:17.330Z,71.60
2023-03-18T04:15:17.331Z,71.29
2023-03-18T04:16:17.352Z,71.16
2023-03-18T04:17:17.279Z,71.05
2023-03-18T04:18:17.275Z,71.90
2023-03-18T04:19:17.253Z,72.71
2023-03-18T04:20:17.252Z,73.26
2023-03-18T04:21:17.231Z,73.46
2023-03-18T04:22:17.226Z,73.15
2023-03-18T04:23:17.217Z,73.56
2023-03-18T04:24:17.202Z,73.46
2023-03-18T04:25:17.194Z,73.22
2023-03-18T04:26:17.180Z,73.43
2023-03-18T04:27:17.163Z,73.63
2023-03-18T04:28:17.157Z,73.63
2023-03-18T04:29:17.142Z,73.52
2023-03-18T04:30:17.142Z,73.59
2023-03-18T04:31:17.227Z,73.19
2023-03-18T04:32:17.138Z,72.85
2023-03-18T04:33:17.097Z,72.24
2023-03-18T04:34:17.106Z,72.44
2023-03-18T04:35:17.085Z,72.54
2023-03-18T04:38:17.045Z,72.34
2023-03-18T04:42:16.999Z,72.85
2023-03-18T04:43:16.989Z,72.10
2023-03-18T04:46:17.020Z,73.80
2023-03-18T04:48:16.957Z,74.10
2023-03-18T04:49:16.926Z,73.69
2023-03-18T04:50:16.913Z,73.46
2023-03-18T04:51:16.898Z,73.69
2023-03-18T04:52:16.893Z,74.20
2023-03-18T04:53:16.889Z,73.56
2023-03-18T04:55:16.860Z,74.10
2023-03-18T04:56:16.846Z,74.10
2023-03-18T04:57:16.840Z,74.51
2023-03-18T04:58:16.823Z,74.40
2023-03-18T04:59:16.821Z,74.40
2023-03-18T05:00:16.802Z,73.87
2023-03-18T05:01:16.851Z,73.66
2023-03-18T05:02:16.781Z,74.10
2023-03-18T05:03:16.772Z,74.31
2023-03-18T05:04:16.880Z,74.10
2023-03-18T05:05:16.744Z,74.07
2023-03-18T05:06:16.739Z,73.87
2023-03-18T05:07:16.746Z,73.63
2023-03-18T05:08:16.723Z,73.12
2023-03-18T05:09:16.703Z,72.91
2023-03-18T05:10:16.692Z,73.46
2023-03-18T05:11:16.682Z,73.22
2023-03-18T05:12:16.683Z,73.12
2023-03-18T05:13:16.660Z,72.71
2023-03-18T05:14:16.653Z,73.15
2023-03-18T05:15:16.640Z,73.32
2023-03-18T05:16:16.663Z,73.76
2023-03-18T05:17:16.614Z,73.56
2023-03-18T05:19:16.801Z,74.61
2023-03-18T05:20:16.615Z,75.12
2023-03-18T05:21:16.571Z,75.12
2023-03-18T05:22:16.570Z,75.42
2023-03-18T05:23:16.550Z,75.76
2023-03-18T05:24:16.540Z,76.06
2023-03-18T05:25:16.554Z,75.52
2023-03-18T05:26:16.519Z,75.73
2023-03-18T05:27:16.516Z,75.12
2023-03-18T05:28:16.498Z,75.42
2023-03-18T05:29:16.494Z,75.12
2023-03-18T05:31:16.599Z,75.21
2023-03-18T05:32:16.453Z,75.32
2023-03-18T05:33:16.442Z,75.69
2023-03-18T05:34:16.432Z,74.68
2023-03-18T05:35:16.421Z,74.57
2023-03-18T05:36:16.429Z,74.13
2023-03-18T05:37:16.415Z,74.03
2023-03-18T05:38:16.395Z,74.23
2023-03-18T05:40:16.442Z,74.34
2023-03-18T05:45:16.310Z,75.32
2023-03-18T05:46:16.367Z,75.21
2023-03-18T05:47:16.287Z,75.08
2023-03-18T05:48:16.276Z,74.54
2023-03-18T05:49:16.267Z,74.92
2023-03-18T05:50:16.261Z,75.59
2023-03-18T05:51:16.243Z,75.28
2023-03-18T05:52:16.250Z,75.12
2023-03-18T05:53:16.240Z,75.62
2023-03-18T05:54:16.206Z,74.98
2023-03-18T05:55:16.201Z,75.18
2023-03-18T05:56:16.187Z,74.57
2023-03-18T05:57:16.179Z,74.57
2023-03-18T05:58:16.168Z,75.28
2023-03-18T05:59:16.154Z,74.16
2023-03-18T06:00:16.145Z,74.44
2023-03-18T06:03:16.196Z,74.64
2023-03-18T06:04:16.103Z,74.07
2023-03-18T06:05:16.094Z,74.57
2023-03-18T06:06:16.078Z,75.42
2023-03-18T06:07:16.076Z,75.32
2023-03-18T06:08:16.083Z,74.68
2023-03-18T06:09:16.058Z,74.47
2023-03-18T06:10:16.099Z,74.37
2023-03-18T06:12:16.035Z,74.92
2023-03-18T06:13:16.007Z,74.88
2023-03-18T06:14:15.994Z,74.95
2023-03-18T06:15:15.985Z,73.59
2023-03-18T06:16:16.022Z,73.39
2023-03-18T06:17:15.995Z,73.99
2023-03-18T06:18:15.965Z,74.07
2023-03-18T06:19:15.956Z,74.47
2023-03-18T06:20:15.951Z,74.47
2023-03-18T06:21:15.918Z,74.88
2023-03-18T06:22:15.910Z,75.32
2023-03-18T06:23:15.897Z,75.08
2023-03-18T06:24:16.003Z,74.47
2023-03-18T06:25:15.874Z,74.13
2023-03-18T06:26:15.866Z,73.83
2023-03-18T06:27:15.873Z,73.96
2023-03-18T06:28:15.840Z,74.44
2023-03-18T06:29:15.829Z,73.08
2023-03-18T06:30:15.817Z,73.59
2023-03-18T06:31:15.918Z,73.83
2023-03-18T06:32:15.796Z,74.57
2023-03-18T06:33:15.793Z,74.88
2023-03-18T06:34:15.776Z,74.78
2023-03-18T06:35:15.769Z,74.78
2023-03-18T06:36:15.803Z,74.47
2023-03-18T06:37:15.745Z,74.57
2023-03-18T06:38:15.731Z,74.78
2023-03-18T06:39:15.722Z,74.68
2023-03-18T06:40:15.733Z,75.35
2023-03-18T06:41:15.700Z,74.13
2023-03-18T06:42:15.686Z,73.99
2023-03-18T06:43:15.675Z,73.32
2023-03-18T06:44:15.664Z,73.63
2023-03-18T06:45:15.657Z,73.29
2023-03-18T06:46:15.705Z,73.69
2023-03-18T06:47:15.635Z,72.65
2023-03-18T06:48:15.635Z,72.24
2023-03-18T06:49:15.613Z,72.68
2023-03-18T06:50:15.620Z,73.18
2023-03-18T06:51:15.615Z,72.44
2023-03-18T06:52:15.581Z,72.85
2023-03-18T06:53:15.568Z,73.29
2023-03-18T06:54:15.556Z,72.30
2023-03-18T06:55:15.548Z,71.73
2023-03-18T06:56:15.552Z,72.61
2023-03-18T06:57:15.526Z,72.95
2023-03-18T06:58:15.518Z,71.80
2023-03-18T06:59:15.509Z,71.30
2023-03-18T07:01:15.495Z,72.95
2023-03-18T07:02:18.470Z,72.95
2023-03-18T07:03:15.460Z,72.24
2023-03-18T07:04:15.550Z,71.80
2023-03-18T07:05:15.440Z,71.83
2023-03-18T07:07:15.420Z,72.14
2023-03-18T07:08:15.403Z,72.74
2023-03-18T07:09:15.415Z,72.03
2023-03-18T07:11:15.377Z,72.30
2023-03-18T07:12:15.378Z,72.61
2023-03-18T07:13:15.353Z,71.56
2023-03-18T07:14:15.335Z,70.55
2023-03-18T07:15:15.324Z,71.19
2023-03-18T07:16:15.377Z,72.41
2023-03-18T07:17:15.313Z,71.94
2023-03-18T07:21:15.273Z,72.44
2023-03-18T07:22:15.252Z,72.34
2023-03-18T07:23:15.238Z,72.44
2023-03-18T07:24:15.236Z,72.34
2023-03-18T07:25:15.213Z,72.68
2023-03-18T07:26:15.200Z,72.17
2023-03-18T07:27:15.196Z,72.74
2023-03-18T07:28:15.202Z,72.24
2023-03-18T07:29:15.170Z,72.03
2023-03-18T07:30:15.165Z,71.39
2023-03-18T07:31:15.278Z,71.60
2023-03-18T07:32:15.142Z,71.53
2023-03-18T07:33:15.127Z,71.80
2023-03-18T07:34:15.147Z,71.09
2023-03-18T07:35:15.135Z,71.16
2023-03-18T07:36:15.112Z,70.59
2023-03-18T07:37:15.083Z,68.29
2023-03-18T07:38:15.090Z,68.53
2023-03-18T07:39:15.063Z,69.00
2023-03-18T07:41:15.042Z,69.74
2023-03-18T07:42:15.025Z,71.13
2023-03-18T07:43:15.019Z,71.09
2023-03-18T07:44:15.027Z,70.95
2023-03-18T07:45:14.994Z,70.11
2023-03-18T07:46:15.001Z,70.18
2023-03-18T07:47:14.970Z,68.40
2023-03-18T07:48:14.958Z,68.17
2023-03-18T07:49:14.952Z,68.20
2023-03-18T07:50:14.938Z,67.08
2023-03-18T07:51:14.927Z,67.76
2023-03-18T07:52:14.915Z,67.23
2023-03-18T07:53:16.677Z,65.84
2023-03-18T07:54:14.896Z,67.63
2023-03-18T07:55:14.882Z,66.45
2023-03-18T07:56:14.871Z,65.31
2023-03-18T07:57:14.869Z,65.31
2023-03-18T07:58:14.847Z,63.57
2023-03-18T07:59:17.195Z,64.20
2023-03-18T08:00:14.848Z,64.39
2023-03-18T08:02:14.804Z,64.87
2023-03-18T08:03:14.799Z,65.27
2023-03-18T08:04:14.836Z,64.00
2023-03-18T08:05:14.830Z,64.44
2023-03-18T08:06:14.764Z,64.94
2023-03-18T08:07:14.759Z,64.77
2023-03-18T08:10:14.716Z,66.21
2023-03-18T08:11:14.732Z,65.81
2023-03-18T08:12:16.505Z,66.88
2023-03-18T08:13:14.682Z,67.29
2023-03-18T08:14:14.676Z,67.05
2023-03-18T08:15:14.664Z,65.14
2023-03-18T08:16:14.794Z,64.23
2023-03-18T08:17:14.648Z,64.44
2023-03-18T08:18:14.631Z,64.84
2023-03-18T08:19:14.622Z,63.90
2023-03-18T08:20:14.607Z,64.03
2023-03-18T08:21:14.621Z,65.98
2023-03-18T08:22:14.586Z,64.77
2023-03-18T08:23:14.578Z,65.07
2023-03-18T08:24:14.562Z,64.84
2023-03-18T08:25:14.644Z,64.20
2023-03-18T08:26:14.541Z,65.24
2023-03-18T08:27:14.532Z,64.77
2023-03-18T08:28:14.518Z,64.74
2023-03-18T08:29:14.510Z,65.13
2023-03-18T08:30:14.496Z,65.47
2023-03-18T08:31:14.559Z,64.64
2023-03-18T08:32:14.494Z,65.17
2023-03-18T08:33:14.475Z,66.08
2023-03-18T08:34:14.463Z,65.21
2023-03-18T08:35:14.458Z,63.83
2023-03-18T08:36:14.489Z,65.04
2023-03-18T08:37:14.420Z,65.21
2023-03-18T08:38:14.411Z,63.67
2023-03-18T08:39:14.398Z,64.81
2023-03-18T08:40:14.385Z,63.67
2023-03-18T08:41:14.377Z,64.03
2023-03-18T08:42:14.371Z,65.41
2023-03-18T08:43:14.356Z,65.81
2023-03-18T08:44:14.343Z,67.08
2023-03-18T08:45:14.333Z,67.05
2023-03-18T08:46:14.414Z,66.21
2023-03-18T08:47:14.316Z,66.65
2023-03-18T08:48:14.320Z,66.32
2023-03-18T08:49:14.305Z,66.24
2023-03-18T08:50:14.293Z,66.61
2023-03-18T08:51:14.270Z,65.27
2023-03-18T08:52:14.257Z,65.14
2023-03-18T08:54:14.237Z,65.81
2023-03-18T08:55:14.224Z,66.55
2023-03-18T08:56:14.212Z,67.08
2023-03-18T08:58:14.192Z,66.25
2023-03-18T08:59:14.181Z,65.18
2023-03-18T09:03:14.199Z,62.60
2023-03-18T09:06:14.107Z,62.78
2023-03-18T09:07:14.093Z,60.89
2023-03-18T09:08:14.083Z,61.21
2023-03-18T09:27:10.653Z,57.95
2023-03-18T09:28:10.654Z,54.18
2023-03-18T09:29:10.661Z,55.88
2023-03-18T09:30:10.617Z,53.97
2023-03-18T09:31:10.677Z,56.67
2023-03-18T09:32:10.649Z,57.39
2023-03-18T09:34:57.259Z,57.13
2023-03-18T09:35:57.314Z,57.56
2023-03-18T09:39:11.709Z,59.66
2023-03-18T09:40:11.710Z,61.87
2023-03-18T09:41:11.709Z,62.92
2023-03-18T09:42:11.717Z,64.27
2023-03-18T09:48:22.330Z,67.84
2023-03-18T09:49:22.293Z,67.54
2023-03-18T09:50:22.368Z,64.88
2023-03-18T09:51:27.532Z,64.67
2023-03-18T10:12:09.023Z,58.92
2023-03-18T10:13:08.997Z,57.73
2023-03-18T10:14:08.961Z,58.06
2023-03-18T10:15:08.918Z,55.84
2023-03-18T10:16:08.927Z,57.08
2023-03-18T10:17:08.863Z,57.81
2023-03-18T10:18:08.840Z,58.21
2023-03-18T10:18:43.599Z,57.58
2023-03-18T10:19:43.597Z,57.55
2023-03-18T10:20:48.315Z,56.89
2023-03-18T10:22:05.260Z,53.72
2023-03-18T10:23:02.556Z,54.25
2023-03-18T10:23:44.583Z,53.29
2023-03-18T10:25:44.573Z,56.56
2023-03-18T10:28:44.523Z,55.34
2023-03-18T10:29:44.514Z,54.13
2023-03-18T10:30:44.528Z,57.23
2023-03-18T10:31:44.498Z,57.83
2023-03-18T10:33:44.475Z,61.48
2023-03-18T10:34:44.461Z,63.44
2023-03-18T10:36:44.440Z,61.50
2023-03-18T10:38:44.418Z,59.53
2023-03-18T10:39:44.409Z,54.68
2023-03-18T10:40:44.400Z,57.41
2023-03-18T10:41:44.405Z,58.50
2023-03-18T10:42:44.377Z,60.02
2023-03-18T10:43:44.365Z,61.93
2023-03-18T10:44:44.352Z,61.73
2023-03-18T10:45:44.345Z,60.94
2023-03-18T10:47:44.321Z,62.84
2023-03-18T10:48:44.315Z,61.43
2023-03-18T10:49:44.303Z,62.64
2023-03-18T10:50:44.299Z,62.71
2023-03-18T10:51:44.277Z,61.27
2023-03-18T10:52:44.269Z,60.73
2023-03-18T10:53:44.259Z,58.63
2023-03-18T10:54:44.251Z,59.68
2023-03-18T10:55:44.235Z,60.58
2023-03-18T10:58:44.205Z,59.92
2023-03-18T11:00:44.185Z,59.72
2023-03-18T11:01:44.285Z,58.46
2023-03-18T11:02:44.300Z,60.99
2023-03-18T11:03:44.165Z,60.31
2023-03-18T11:04:44.145Z,62.51
2023-03-18T11:05:44.130Z,59.64
2023-03-18T11:06:44.133Z,57.80
2023-03-18T11:07:44.109Z,59.36
2023-03-18T11:08:44.099Z,56.86
2023-03-18T11:09:44.087Z,59.99
2023-03-18T11:10:44.081Z,56.86
2023-03-18T11:11:44.068Z,59.88
2023-03-18T11:12:44.057Z,59.04
2023-03-18T11:13:44.069Z,57.39
2023-03-18T11:15:44.100Z,59.71
2023-03-18T11:16:44.017Z,55.87
2023-03-18T11:18:43.994Z,54.38
2023-03-18T11:19:43.983Z,53.69
2023-03-18T11:20:43.973Z,54.27
2023-03-18T11:21:43.962Z,53.34
2023-03-18T11:23:43.941Z,53.44
2023-03-18T11:24:43.928Z,54.47
2023-03-18T11:25:43.920Z,52.16
2023-03-18T11:26:43.918Z,52.84
2023-03-18T11:27:43.900Z,51.33
2023-03-18T11:28:43.895Z,52.99
2023-03-18T11:29:46.286Z,56.85
2023-03-18T11:30:44.244Z,54.28
2023-03-18T11:31:43.875Z,55.74
2023-03-18T11:32:43.887Z,57.03
2023-03-18T11:34:43.832Z,55.24
2023-03-18T11:36:43.806Z,53.60
2023-03-18T11:37:43.791Z,55.16
2023-03-18T11:38:43.782Z,56.25
2023-03-18T11:39:43.921Z,53.67
2023-03-18T11:41:43.747Z,54.96
2023-03-18T11:43:43.731Z,53.47
2023-03-18T11:44:43.718Z,52.76
2023-03-18T11:45:43.725Z,58.64
2023-03-18T11:46:43.770Z,53.16
2023-03-18T11:47:43.686Z,53.62
2023-03-18T11:48:43.707Z,52.59
2023-03-18T11:49:43.667Z,49.52
2023-03-18T11:52:43.632Z,52.16
2023-03-18T11:53:43.621Z,52.39
2023-03-18T11:54:43.612Z,52.23
2023-03-18T11:55:43.599Z,53.90
2023-03-18T11:56:43.593Z,54.55
2023-03-18T11:58:43.570Z,55.09
2023-03-18T11:59:43.558Z,53.87
2023-03-18T12:00:43.558Z,53.44
2023-03-18T12:01:43.584Z,55.21
2023-03-18T12:02:43.533Z,56.68
2023-03-18T12:03:43.521Z,56.89
2023-03-18T12:04:43.684Z,57.19
2023-03-18T12:05:43.503Z,56.38
2023-03-18T12:06:43.487Z,56.78
2023-03-18T12:07:43.474Z,56.76
2023-03-18T12:08:43.468Z,56.76
2023-03-18T12:09:43.463Z,55.21
2023-03-18T12:10:43.443Z,54.60
2023-03-18T12:11:43.438Z,53.04
2023-03-18T12:12:43.425Z,53.39
2023-03-18T12:13:43.414Z,53.34
2023-03-18T12:14:43.408Z,54.10
2023-03-18T12:15:43.391Z,54.81
2023-03-18T12:16:43.473Z,57.47
2023-03-18T12:17:43.397Z,55.79
2023-03-18T12:18:43.381Z,54.13
2023-03-18T12:19:43.363Z,54.10
2023-03-18T12:20:43.342Z,54.13
2023-03-18T12:21:43.328Z,54.55
2023-03-18T12:22:43.320Z,54.43
2023-03-18T12:23:43.306Z,55.16
2023-03-18T12:24:43.299Z,55.87
2023-03-18T12:26:43.281Z,54.63
2023-03-18T12:27:43.269Z,55.99
2023-03-18T12:28:43.256Z,53.44
2023-03-18T12:29:43.246Z,53.95
2023-03-18T12:31:43.250Z,54.93
2023-03-18T12:32:43.280Z,54.35
2023-03-18T12:33:43.232Z,55.19
2023-03-18T12:34:43.194Z,55.90
2023-03-18T12:35:43.208Z,55.29
2023-03-18T12:36:43.173Z,55.74
2023-03-18T12:37:43.159Z,53.22
2023-03-18T12:38:43.153Z,50.70
2023-03-18T12:39:43.142Z,48.95
2023-03-18T12:40:43.131Z,48.24
2023-03-18T12:41:43.121Z,47.08
2023-03-18T12:42:43.112Z,46.50
2023-03-18T12:43:43.099Z,48.13
2023-03-18T12:44:43.097Z,50.47
2023-03-18T12:45:43.117Z,50.35
2023-03-18T12:46:43.069Z,51.98
2023-03-18T12:47:43.061Z,47.13
2023-03-18T12:48:44.744Z,48.34
2023-03-18T12:50:43.040Z,49.36
2023-03-18T12:51:43.017Z,51.58
2023-03-18T12:52:43.004Z,52.53
2023-03-18T12:53:42.994Z,52.94
2023-03-18T12:54:42.981Z,53.72
2023-03-18T12:55:42.970Z,52.38
2023-03-18T12:58:42.964Z,48.72
2023-03-18T12:59:42.928Z,46.63
2023-03-18T13:00:42.944Z,48.06
2023-03-18T13:01:42.980Z,49.70
2023-03-18T13:02:43.020Z,50.09
2023-03-18T13:03:42.887Z,49.73
2023-03-18T13:04:42.874Z,50.26
2023-03-18T13:05:42.915Z,51.91
2023-03-18T13:06:42.853Z,51.88
2023-03-18T13:07:42.838Z,52.49
2023-03-18T13:08:42.842Z,50.46
2023-03-18T13:09:42.820Z,50.67
2023-03-18T13:10:42.809Z,51.80
2023-03-18T13:11:42.795Z,53.02
2023-03-18T13:12:42.788Z,52.58
2023-03-18T13:13:42.773Z,52.08
2023-03-18T13:14:42.808Z,51.78
2023-03-18T13:15:42.754Z,52.26
2023-03-18T13:17:42.737Z,48.63
2023-03-18T13:18:42.721Z,48.55
2023-03-18T13:19:42.709Z,50.54
2023-03-18T13:20:42.700Z,51.98
2023-03-18T13:21:42.705Z,54.02
2023-03-18T13:22:42.679Z,53.14
2023-03-18T13:23:42.664Z,54.45
2023-03-18T13:24:42.656Z,53.67
2023-03-18T13:25:42.647Z,53.75
2023-03-18T13:26:42.634Z,52.51
2023-03-18T13:27:42.623Z,54.00
2023-03-18T13:28:42.651Z,52.44
2023-03-18T13:29:45.035Z,51.02
2023-03-18T13:30:42.618Z,49.29
2023-03-18T13:31:42.579Z,51.10
2023-03-18T13:32:42.603Z,52.13
2023-03-18T13:33:42.558Z,51.35
2023-03-18T13:34:42.544Z,51.91
2023-03-18T13:35:42.550Z,53.22
2023-03-18T13:36:42.528Z,53.02
2023-03-18T13:37:42.532Z,53.16
2023-03-18T13:39:42.499Z,54.28
2023-03-18T13:40:43.031Z,53.57
2023-03-18T13:41:42.470Z,53.67
2023-03-18T13:42:42.466Z,54.38
2023-03-18T13:43:42.451Z,53.57
2023-03-18T13:44:42.441Z,52.84
2023-03-18T13:45:42.437Z,51.93
2023-03-18T13:47:42.411Z,51.42
2023-03-18T13:48:42.408Z,53.54
2023-03-18T13:49:42.390Z,52.94
2023-03-18T13:50:42.397Z,53.82
2023-03-18T13:51:42.368Z,53.14
2023-03-18T13:53:42.362Z,52.61
2023-03-18T13:54:42.333Z,52.11
2023-03-18T13:55:42.320Z,52.00
2023-03-18T13:57:42.301Z,52.41
2023-03-18T13:58:42.285Z,53.75
2023-03-18T14:00:42.302Z,55.11
2023-03-18T14:01:42.264Z,54.71
2023-03-18T14:02:42.247Z,53.80
2023-03-18T14:03:42.442Z,53.60
2023-03-18T14:05:42.220Z,53.57
2023-03-18T14:06:42.209Z,54.07
2023-03-18T14:08:42.185Z,53.04
2023-03-18T14:09:42.192Z,52.94
2023-03-18T14:10:42.206Z,52.23
2023-03-18T14:11:43.625Z,52.43
2023-03-18T14:12:42.217Z,53.64
2023-03-18T14:13:42.190Z,52.94
2023-03-18T14:14:42.122Z,51.65
2023-03-18T14:15:42.203Z,52.36
2023-03-18T14:16:42.099Z,51.02
2023-03-18T14:17:42.093Z,51.62
2023-03-18T14:18:42.081Z,51.85
2023-03-18T14:19:42.070Z,52.96
2023-03-18T14:20:42.060Z,52.36
2023-03-18T14:21:42.048Z,53.49
2023-03-18T14:22:42.034Z,54.00
2023-03-18T14:24:42.014Z,53.60
2023-03-18T14:25:42.027Z,53.82
2023-03-18T14:26:41.995Z,53.42
2023-03-18T14:27:41.991Z,54.13
2023-03-18T14:28:41.979Z,54.86
2023-03-18T14:29:41.960Z,54.35
2023-03-18T14:30:41.954Z,53.14
2023-03-18T14:33:41.922Z,53.24
2023-03-18T14:34:41.908Z,52.74
2023-03-18T14:35:41.930Z,53.75
2023-03-18T14:36:41.886Z,54.66
2023-03-18T14:37:41.877Z,56.31
2023-03-18T14:38:41.866Z,58.46
2023-03-18T14:39:41.857Z,58.39
2023-03-18T14:40:41.853Z,61.96
2023-03-18T14:41:41.855Z,64.76
2023-03-18T14:42:41.832Z,64.86
2023-03-18T14:43:41.814Z,66.01
2023-03-18T14:44:41.805Z,67.05
2023-03-18T14:45:41.792Z,67.97
2023-03-18T14:46:41.880Z,67.87
2023-03-18T14:47:41.771Z,65.63
2023-03-18T14:48:41.760Z,66.35
2023-03-18T14:49:41.757Z,63.06
2023-03-18T14:50:41.736Z,63.67
2023-03-18T14:51:41.727Z,64.05
2023-03-18T14:52:41.715Z,73.43
2023-03-18T14:53:41.717Z,79.23
2023-03-18T14:54:41.692Z,82.53
2023-03-18T14:55:41.712Z,85.52
2023-03-18T14:57:41.681Z,84.34
2023-03-18T14:58:41.651Z,84.24
2023-03-18T14:59:41.641Z,87.20
2023-03-18T15:00:41.630Z,86.42
2023-03-18T15:01:41.719Z,86.12
2023-03-18T15:02:41.621Z,85.95
2023-03-18T15:04:41.585Z,88.44
2023-03-18T15:05:41.579Z,91.10
2023-03-18T15:08:48.125Z,92.98
2023-03-18T15:09:42.566Z,93.39
2023-03-18T15:11:41.513Z,93.04
2023-03-18T15:12:41.501Z,94.12
2023-03-18T15:13:41.511Z,93.71
2023-03-18T15:14:41.479Z,94.79
2023-03-18T15:15:41.469Z,96.38
2023-03-18T15:16:41.535Z,94.14
2023-03-18T15:17:41.451Z,93.01
2023-03-18T15:18:41.440Z,93.16
2023-03-18T15:19:41.430Z,93.26
2023-03-18T15:21:41.412Z,88.79
2023-03-18T15:22:41.394Z,88.42
2023-03-18T15:24:41.375Z,89.85
2023-03-18T15:25:41.364Z,89.48
2023-03-18T15:26:41.364Z,89.89
2023-03-18T15:28:41.332Z,92.40
2023-03-18T15:29:41.345Z,91.48
2023-03-18T15:30:41.310Z,89.44
2023-03-18T15:31:41.359Z,90.26
2023-03-18T15:32:41.321Z,90.57
2023-03-18T15:33:41.284Z,91.99
2023-03-18T15:34:41.273Z,91.07
2023-03-18T15:35:41.280Z,89.95